sensor_id;sensor_type;location;lat;lon;timestamp;pressure;altitude;pressure_sealevel;temperature;humidity
27587;BME280;15019;49.002;8.420;2022-07-19T00:02:11;100473.34;;;23.11;47.68
27587;BME280;15019;49.002;8.420;2022-07-19T00:04:36;100479.59;;;23.07;47.96
27587;BME280;15019;49.002;8.420;2022-07-19T00:07:02;100480.94;;;22.96;50.41
27587;BME280;15019;49.002;8.420;2022-07-19T00:09:28;100484.13;;;22.84;50.78
27587;BME280;15019;49.002;8.420;2022-07-19T00:11:54;100475.09;;;22.74;50.53
27587;BME280;15019;49.002;8.420;2022-07-19T00:14:20;100473.72;;;22.67;53.15
27587;BME280;15019;49.002;8.420;2022-07-19T00:16:46;100477.00;;;22.52;52.45
27587;BME280;15019;49.002;8.420;2022-07-19T00:19:11;100472.59;;;22.54;51.08
27587;BME280;15019;49.002;8.420;2022-07-19T00:21:37;100474.47;;;22.50;50.85
27587;BME280;15019;49.002;8.420;2022-07-19T00:24:02;100470.94;;;22.53;49.88
27587;BME280;15019;49.002;8.420;2022-07-19T00:26:28;100472.94;;;22.65;49.24
27587;BME280;15019;49.002;8.420;2022-07-19T00:28:53;100472.94;;;22.65;50.41
27587;BME280;15019;49.002;8.420;2022-07-19T00:31:19;100468.81;;;22.61;50.26
27587;BME280;15019;49.002;8.420;2022-07-19T00:33:44;100467.44;;;22.54;49.59
27587;BME280;15019;49.002;8.420;2022-07-19T00:36:09;100475.53;;;22.65;49.26
27587;BME280;15019;49.002;8.420;2022-07-19T00:38:34;100470.50;;;22.62;48.86
27587;BME280;15019;49.002;8.420;2022-07-19T00:41:01;100469.25;;;22.52;50.78
27587;BME280;15019;49.002;8.420;2022-07-19T00:43:26;100467.44;;;22.54;49.46
27587;BME280;15019;49.002;8.420;2022-07-19T00:45:51;100467.88;;;22.45;51.30
27587;BME280;15019;49.002;8.420;2022-07-19T00:48:17;100475.81;;;22.40;50.18
27587;BME280;15019;49.002;8.420;2022-07-19T00:50:42;100472.53;;;22.37;49.75
27587;BME280;15019;49.002;8.420;2022-07-19T00:53:08;100479.44;;;22.36;49.81
27587;BME280;15019;49.002;8.420;2022-07-19T00:55:34;100476.66;;;22.41;49.68
27587;BME280;15019;49.002;8.420;2022-07-19T00:58:01;100475.09;;;22.37;50.57
27587;BME280;15019;49.002;8.420;2022-07-19T01:00:29;100474.28;;;22.36;50.12
27587;BME280;15019;49.002;8.420;2022-07-19T01:02:56;100479.44;;;22.36;51.16
27587;BME280;15019;49.002;8.420;2022-07-19T01:05:21;100477.78;;;22.35;49.54
27587;BME280;15019;49.002;8.420;2022-07-19T01:07:47;100475.88;;;22.20;51.17
27587;BME280;15019;49.002;8.420;2022-07-19T01:10:14;100467.44;;;22.16;50.15
27587;BME280;15019;49.002;8.420;2022-07-19T01:12:41;100477.69;;;22.18;50.11
27587;BME280;15019;49.002;8.420;2022-07-19T01:17:38;100476.09;;;22.15;50.12
27587;BME280;15019;49.002;8.420;2022-07-19T01:20:03;100474.56;;;22.11;50.63
27587;BME280;15019;49.002;8.420;2022-07-19T01:22:29;100474.69;;;22.08;50.63
27587;BME280;15019;49.002;8.420;2022-07-19T01:24:54;100469.53;;;22.08;50.40
27587;BME280;15019;49.002;8.420;2022-07-19T01:27:20;100466.31;;;22.03;50.47
27587;BME280;15019;49.002;8.420;2022-07-19T01:29:45;100468.88;;;21.83;51.22
27587;BME280;15019;49.002;8.420;2022-07-19T01:32:10;100472.66;;;21.76;51.25
27587;BME280;15019;49.002;8.420;2022-07-19T01:34:35;100466.47;;;21.80;50.41
27587;BME280;15019;49.002;8.420;2022-07-19T01:37:01;100470.56;;;21.84;50.40
27587;BME280;15019;49.002;8.420;2022-07-19T01:39:26;100470.72;;;21.81;50.26
27587;BME280;15019;49.002;8.420;2022-07-19T01:41:51;100467.25;;;21.82;49.90
27587;BME280;15019;49.002;8.420;2022-07-19T01:44:17;100461.91;;;21.85;49.73
27587;BME280;15019;49.002;8.420;2022-07-19T01:46:42;100468.03;;;21.82;50.01
27587;BME280;15019;49.002;8.420;2022-07-19T01:49:07;100464.91;;;21.76;49.84
27587;BME280;15019;49.002;8.420;2022-07-19T01:51:33;100469.56;;;21.68;49.90
27587;BME280;15019;49.002;8.420;2022-07-19T01:53:58;100467.69;;;21.71;49.83
27587;BME280;15019;49.002;8.420;2022-07-19T01:56:24;100468.59;;;21.70;49.89
27587;BME280;15019;49.002;8.420;2022-07-19T01:58:49;100474.84;;;21.65;49.96
27587;BME280;15019;49.002;8.420;2022-07-19T02:01:14;100471.25;;;21.69;49.73
27587;BME280;15019;49.002;8.420;2022-07-19T02:03:40;100460.66;;;21.75;49.64
27587;BME280;15019;49.002;8.420;2022-07-19T02:06:05;100465.97;;;21.72;49.75
27587;BME280;15019;49.002;8.420;2022-07-19T02:08:31;100450.59;;;21.69;49.42
27587;BME280;15019;49.002;8.420;2022-07-19T02:10:56;100452.53;;;21.64;49.75
27587;BME280;15019;49.002;8.420;2022-07-19T02:13:21;100454.31;;;21.62;49.58
27587;BME280;15019;49.002;8.420;2022-07-19T02:15:47;100445.56;;;21.66;49.27
27587;BME280;15019;49.002;8.420;2022-07-19T02:18:12;100447.25;;;21.67;49.37
27587;BME280;15019;49.002;8.420;2022-07-19T02:20:37;100443.38;;;21.57;49.43
27587;BME280;15019;49.002;8.420;2022-07-19T02:23:03;100442.97;;;21.66;49.21
27587;BME280;15019;49.002;8.420;2022-07-19T02:25:28;100436.34;;;21.60;49.11
27587;BME280;15019;49.002;8.420;2022-07-19T02:27:53;100444.59;;;21.68;49.03
27587;BME280;15019;49.002;8.420;2022-07-19T02:30:19;100436.78;;;21.70;48.77
27587;BME280;15019;49.002;8.420;2022-07-19T02:32:44;100433.44;;;21.68;48.94
27587;BME280;15019;49.002;8.420;2022-07-19T02:35:10;100427.78;;;21.60;48.49
27587;BME280;15019;49.002;8.420;2022-07-19T02:37:37;100422.28;;;21.67;48.76
27587;BME280;15019;49.002;8.420;2022-07-19T02:40:03;100421.44;;;21.67;48.54
27587;BME280;15019;49.002;8.420;2022-07-19T02:42:28;100433.69;;;21.62;48.68
27587;BME280;15019;49.002;8.420;2022-07-19T02:44:54;100418.59;;;21.52;49.12
27587;BME280;15019;49.002;8.420;2022-07-19T02:47:19;100425.19;;;21.60;48.86
27587;BME280;15019;49.002;8.420;2022-07-19T02:49:44;100423.50;;;21.59;49.00
27587;BME280;15019;49.002;8.420;2022-07-19T02:52:10;100418.19;;;21.62;49.20
27587;BME280;15019;49.002;8.420;2022-07-19T02:54:35;100420.03;;;21.60;49.29
27587;BME280;15019;49.002;8.420;2022-07-19T02:57:01;100418.34;;;21.59;49.66
27587;BME280;15019;49.002;8.420;2022-07-19T02:59:26;100427.97;;;21.55;49.63
27587;BME280;15019;49.002;8.420;2022-07-19T03:01:51;100428.69;;;21.59;49.91
27587;BME280;15019;49.002;8.420;2022-07-19T03:04:18;100420.03;;;21.60;49.89
27587;BME280;15019;49.002;8.420;2022-07-19T03:06:43;100416.81;;;21.54;50.09
27587;BME280;15019;49.002;8.420;2022-07-19T03:09:08;100427.41;;;21.48;51.51
27587;BME280;15019;49.002;8.420;2022-07-19T03:11:34;100424.56;;;21.34;50.47
27587;BME280;15019;49.002;8.420;2022-07-19T03:13:59;100417.47;;;21.39;50.47
27587;BME280;15019;49.002;8.420;2022-07-19T03:16:24;100415.78;;;21.38;50.52
27587;BME280;15019;49.002;8.420;2022-07-19T03:18:49;100419.97;;;21.41;50.40
27587;BME280;15019;49.002;8.420;2022-07-19T03:21:15;100410.88;;;21.32;50.44
27587;BME280;15019;49.002;8.420;2022-07-19T03:23:40;100415.34;;;21.29;50.54
27587;BME280;15019;49.002;8.420;2022-07-19T03:26:06;100423.00;;;21.30;50.26
27587;BME280;15019;49.002;8.420;2022-07-19T03:28:32;100423.78;;;21.32;50.22
27587;BME280;15019;49.002;8.420;2022-07-19T03:30:58;100422.88;;;21.33;50.28
27587;BME280;15019;49.002;8.420;2022-07-19T03:33:23;100425.47;;;21.33;50.57
27587;BME280;15019;49.002;8.420;2022-07-19T03:35:48;100424.69;;;21.31;50.59
27587;BME280;15019;49.002;8.420;2022-07-19T03:38:14;100424.69;;;21.31;50.55
27587;BME280;15019;49.002;8.420;2022-07-19T03:40:39;100418.00;;;21.27;50.38
27587;BME280;15019;49.002;8.420;2022-07-19T03:43:06;100418.00;;;21.27;50.69
27587;BME280;15019;49.002;8.420;2022-07-19T03:45:31;100421.59;;;21.23;50.76
27587;BME280;15019;49.002;8.420;2022-07-19T03:47:56;100429.38;;;21.22;50.83
27587;BME280;15019;49.002;8.420;2022-07-19T03:50:22;100428.44;;;21.24;50.63
27587;BME280;15019;49.002;8.420;2022-07-19T03:52:47;100425.97;;;21.21;50.73
27587;BME280;15019;49.002;8.420;2022-07-19T03:55:12;100431.19;;;21.19;51.00
27587;BME280;15019;49.002;8.420;2022-07-19T03:57:38;100429.31;;;21.23;50.79
27587;BME280;15019;49.002;8.420;2022-07-19T04:00:04;100436.88;;;21.28;50.76
27587;BME280;15019;49.002;8.420;2022-07-19T04:02:29;100429.44;;;21.20;51.16
27587;BME280;15019;49.002;8.420;2022-07-19T04:04:54;100439.94;;;21.15;51.46
27587;BME280;15019;49.002;8.420;2022-07-19T04:07:20;100439.16;;;21.13;51.66
27587;BME280;15019;49.002;8.420;2022-07-19T04:09:45;100442.56;;;21.14;51.71
27587;BME280;15019;49.002;8.420;2022-07-19T04:12:11;100439.31;;;21.09;52.11
27587;BME280;15019;49.002;8.420;2022-07-19T04:14:36;100448.63;;;21.13;52.12
27587;BME280;15019;49.002;8.420;2022-07-19T04:17:01;100439.22;;;21.12;51.98
27587;BME280;15019;49.002;8.420;2022-07-19T04:19:27;100447.06;;;21.09;52.49
27587;BME280;15019;49.002;8.420;2022-07-19T04:21:52;100445.31;;;21.09;52.32
27587;BME280;15019;49.002;8.420;2022-07-19T04:24:17;100449.78;;;21.06;52.85
27587;BME280;15019;49.002;8.420;2022-07-19T04:26:43;100444.63;;;21.06;52.71
27587;BME280;15019;49.002;8.420;2022-07-19T04:29:08;100453.16;;;21.08;52.63
27587;BME280;15019;49.002;8.420;2022-07-19T04:31:33;100442.00;;;21.07;52.66
27587;BME280;15019;49.002;8.420;2022-07-19T04:33:59;100439.31;;;21.09;52.66
27587;BME280;15019;49.002;8.420;2022-07-19T04:36:24;100447.72;;;21.14;52.69
27587;BME280;15019;49.002;8.420;2022-07-19T04:38:49;100450.97;;;21.19;52.37
27587;BME280;15019;49.002;8.420;2022-07-19T04:41:15;100450.16;;;21.18;52.75
27587;BME280;15019;49.002;8.420;2022-07-19T04:43:40;100449.63;;;21.09;52.93
27587;BME280;15019;49.002;8.420;2022-07-19T04:46:05;100448.50;;;21.16;52.57
27587;BME280;15019;49.002;8.420;2022-07-19T04:48:32;100439.00;;;21.18;53.03
27587;BME280;15019;49.002;8.420;2022-07-19T04:50:57;100445.63;;;21.24;52.79
27587;BME280;15019;49.002;8.420;2022-07-19T04:53:23;100447.38;;;21.23;52.62
27587;BME280;15019;49.002;8.420;2022-07-19T04:55:48;100448.94;;;21.27;52.80
27587;BME280;15019;49.002;8.420;2022-07-19T04:58:13;100449.84;;;21.26;53.07
27587;BME280;15019;49.002;8.420;2022-07-19T05:00:38;100451.38;;;21.30;52.78
27587;BME280;15019;49.002;8.420;2022-07-19T05:03:04;100444.34;;;21.34;52.71
27587;BME280;15019;49.002;8.420;2022-07-19T05:05:29;100445.19;;;21.34;52.77
27587;BME280;15019;49.002;8.420;2022-07-19T05:07:54;100449.13;;;21.43;52.68
27587;BME280;15019;49.002;8.420;2022-07-19T05:10:20;100446.75;;;21.38;52.69
27587;BME280;15019;49.002;8.420;2022-07-19T05:12:45;100451.53;;;21.47;52.28
27587;BME280;15019;49.002;8.420;2022-07-19T05:15:10;100451.25;;;21.53;52.48
27587;BME280;15019;49.002;8.420;2022-07-19T05:17:36;100454.47;;;21.59;52.34
27587;BME280;15019;49.002;8.420;2022-07-19T05:20:01;100450.59;;;21.69;52.08
27587;BME280;15019;49.002;8.420;2022-07-19T05:22:27;100450.31;;;21.75;52.17
27587;BME280;15019;49.002;8.420;2022-07-19T05:24:53;100447.41;;;21.82;51.67
27587;BME280;15019;49.002;8.420;2022-07-19T05:27:19;100443.66;;;21.89;52.00
27587;BME280;15019;49.002;8.420;2022-07-19T05:29:45;100452.75;;;21.98;51.74
27587;BME280;15019;49.002;8.420;2022-07-19T05:32:10;100450.53;;;22.09;51.07
27587;BME280;15019;49.002;8.420;2022-07-19T05:34:35;100454.31;;;22.21;50.50
27587;BME280;15019;49.002;8.420;2022-07-19T05:37:01;100447.88;;;22.30;50.44
27587;BME280;15019;49.002;8.420;2022-07-19T05:39:26;100453.88;;;22.49;50.16
27587;BME280;15019;49.002;8.420;2022-07-19T05:41:51;100454.66;;;22.51;49.89
27587;BME280;15019;49.002;8.420;2022-07-19T05:44:17;100450.97;;;22.56;50.28
27587;BME280;15019;49.002;8.420;2022-07-19T05:46:42;100449.69;;;22.65;50.05
27587;BME280;15019;49.002;8.420;2022-07-19T05:49:08;100452.94;;;22.69;49.90
27587;BME280;15019;49.002;8.420;2022-07-19T05:51:33;100456.66;;;22.82;49.77
27587;BME280;15019;49.002;8.420;2022-07-19T05:53:58;100455.94;;;22.97;50.05
27587;BME280;15019;49.002;8.420;2022-07-19T05:56:24;100454.63;;;23.06;49.40
27587;BME280;15019;49.002;8.420;2022-07-19T05:58:49;100452.50;;;23.14;49.63
27587;BME280;15019;49.002;8.420;2022-07-19T06:01:14;100457.97;;;23.25;49.74
27587;BME280;15019;49.002;8.420;2022-07-19T06:03:39;100450.91;;;23.28;49.21
27587;BME280;15019;49.002;8.420;2022-07-19T06:06:05;100457.56;;;23.51;48.87
27587;BME280;15019;49.002;8.420;2022-07-19T06:08:30;100453.25;;;23.67;48.29
27587;BME280;15019;49.002;8.420;2022-07-19T06:10:56;100456.88;;;23.81;48.20
27587;BME280;15019;49.002;8.420;2022-07-19T06:13:21;100462.53;;;24.04;47.41
27587;BME280;15019;49.002;8.420;2022-07-19T06:15:47;100458.91;;;24.24;46.72
27587;BME280;15019;49.002;8.420;2022-07-19T06:18:12;100459.91;;;24.37;46.97
27587;BME280;15019;49.002;8.420;2022-07-19T06:20:37;100460.59;;;24.57;46.57
27587;BME280;15019;49.002;8.420;2022-07-19T06:23:03;100473.28;;;24.77;45.73
27587;BME280;15019;49.002;8.420;2022-07-19T06:25:28;100467.56;;;24.86;45.17
27587;BME280;15019;49.002;8.420;2022-07-19T06:27:54;100470.59;;;24.94;45.29
27587;BME280;15019;49.002;8.420;2022-07-19T06:30:19;100469.81;;;25.08;45.21
27587;BME280;15019;49.002;8.420;2022-07-19T06:32:44;100472.72;;;25.17;44.84
27587;BME280;15019;49.002;8.420;2022-07-19T06:35:11;100468.66;;;25.28;44.38
27587;BME280;15019;49.002;8.420;2022-07-19T06:37:36;100466.28;;;25.39;44.45
27587;BME280;15019;49.002;8.420;2022-07-19T06:40:02;100468.69;;;25.56;44.02
27587;BME280;15019;49.002;8.420;2022-07-19T06:42:28;100473.19;;;25.68;44.27
27587;BME280;15019;49.002;8.420;2022-07-19T06:44:53;100471.91;;;25.75;43.68
27587;BME280;15019;49.002;8.420;2022-07-19T06:47:18;100475.56;;;26.56;42.60
27587;BME280;15019;49.002;8.420;2022-07-19T06:49:43;100475.69;;;27.21;40.74
27587;BME280;15019;49.002;8.420;2022-07-19T06:52:09;100475.09;;;27.30;39.87
27587;BME280;15019;49.002;8.420;2022-07-19T06:54:34;100476.38;;;26.98;41.10
27587;BME280;15019;49.002;8.420;2022-07-19T06:56:59;100463.72;;;26.92;41.06
27587;BME280;15019;49.002;8.420;2022-07-19T06:59:25;100469.44;;;27.24;40.77
27587;BME280;15019;49.002;8.420;2022-07-19T07:01:50;100468.25;;;27.67;39.60
27587;BME280;15019;49.002;8.420;2022-07-19T07:04:15;100460.31;;;27.69;40.08
27587;BME280;15019;49.002;8.420;2022-07-19T07:06:41;100463.97;;;27.66;41.88
27587;BME280;15019;49.002;8.420;2022-07-19T07:09:06;100469.06;;;27.55;40.72
27587;BME280;15019;49.002;8.420;2022-07-19T07:11:31;100471.59;;;27.69;40.80
27587;BME280;15019;49.002;8.420;2022-07-19T07:13:57;100464.50;;;27.84;40.82
27587;BME280;15019;49.002;8.420;2022-07-19T07:16:22;100466.03;;;28.49;40.25
27587;BME280;15019;49.002;8.420;2022-07-19T07:18:47;100470.66;;;28.93;38.88
27587;BME280;15019;49.002;8.420;2022-07-19T07:21:13;100471.06;;;29.57;37.67
27587;BME280;15019;49.002;8.420;2022-07-19T07:23:39;100473.47;;;29.93;36.12
27587;BME280;15019;49.002;8.420;2022-07-19T07:26:04;100471.38;;;29.98;35.97
27587;BME280;15019;49.002;8.420;2022-07-19T07:28:30;100469.09;;;29.94;37.21
27587;BME280;15019;49.002;8.420;2022-07-19T07:30:55;100460.41;;;29.82;36.53
27587;BME280;15019;49.002;8.420;2022-07-19T07:33:20;100464.59;;;30.18;36.16
27587;BME280;15019;49.002;8.420;2022-07-19T07:35:46;100467.00;;;30.42;36.05
27587;BME280;15019;49.002;8.420;2022-07-19T07:38:11;100464.78;;;31.33;37.20
27587;BME280;15019;49.002;8.420;2022-07-19T07:40:37;100471.88;;;31.42;34.20
27587;BME280;15019;49.002;8.420;2022-07-19T07:43:02;100471.72;;;32.25;33.48
27587;BME280;15019;49.002;8.420;2022-07-19T07:45:29;100471.53;;;33.05;31.54
27587;BME280;15019;49.002;8.420;2022-07-19T07:47:54;100467.38;;;32.93;31.54
27587;BME280;15019;49.002;8.420;2022-07-19T07:50:20;100471.13;;;33.66;32.42
27587;BME280;15019;49.002;8.420;2022-07-19T07:52:45;100469.03;;;34.25;30.21
27587;BME280;15019;49.002;8.420;2022-07-19T07:55:11;100470.81;;;34.34;29.67
27587;BME280;15019;49.002;8.420;2022-07-19T07:57:37;100463.47;;;34.10;29.80
27587;BME280;15019;49.002;8.420;2022-07-19T08:00:05;100457.88;;;34.13;30.10
27587;BME280;15019;49.002;8.420;2022-07-19T08:02:31;100452.03;;;34.64;28.63
27587;BME280;15019;49.002;8.420;2022-07-19T08:04:56;100459.47;;;34.69;28.45
27587;BME280;15019;49.002;8.420;2022-07-19T08:07:21;100456.06;;;35.12;28.51
27587;BME280;15019;49.002;8.420;2022-07-19T08:09:46;100451.16;;;35.43;27.45
27587;BME280;15019;49.002;8.420;2022-07-19T08:12:12;100451.66;;;35.38;27.46
27587;BME280;15019;49.002;8.420;2022-07-19T08:14:37;100448.63;;;35.59;26.61
27587;BME280;15019;49.002;8.420;2022-07-19T08:17:03;100440.25;;;36.06;26.70
27587;BME280;15019;49.002;8.420;2022-07-19T08:19:28;100436.94;;;36.04;25.96
27587;BME280;15019;49.002;8.420;2022-07-19T08:21:53;100442.00;;;36.39;26.03
27587;BME280;15019;49.002;8.420;2022-07-19T08:24:19;100438.00;;;37.41;26.54
27587;BME280;15019;49.002;8.420;2022-07-19T08:26:44;100437.91;;;36.69;25.35
27587;BME280;15019;49.002;8.420;2022-07-19T08:29:09;100433.78;;;37.07;25.66
27587;BME280;15019;49.002;8.420;2022-07-19T08:31:34;100431.25;;;37.30;24.34
27587;BME280;15019;49.002;8.420;2022-07-19T08:34:00;100426.44;;;37.33;24.26
27587;BME280;15019;49.002;8.420;2022-07-19T08:36:25;100427.41;;;37.41;23.85
27587;BME280;15019;49.002;8.420;2022-07-19T08:38:51;100425.16;;;37.29;24.16
27587;BME280;15019;49.002;8.420;2022-07-19T08:41:16;100421.81;;;37.83;22.90
27587;BME280;15019;49.002;8.420;2022-07-19T08:43:42;100422.81;;;37.34;24.07
27587;BME280;15019;49.002;8.420;2022-07-19T08:46:07;100419.22;;;37.19;23.42
27587;BME280;15019;49.002;8.420;2022-07-19T08:48:35;100424.63;;;38.43;24.33
27587;BME280;15019;49.002;8.420;2022-07-19T08:51:01;100432.97;;;39.15;22.79
27587;BME280;15019;49.002;8.420;2022-07-19T08:53:32;100441.69;;;38.40;21.95
27587;BME280;15019;49.002;8.420;2022-07-19T08:55:59;100426.28;;;38.21;22.17
27587;BME280;15019;49.002;8.420;2022-07-19T08:58:24;100422.06;;;37.57;22.78
27587;BME280;15019;49.002;8.420;2022-07-19T09:00:50;100425.94;;;37.85;22.17
27587;BME280;15019;49.002;8.420;2022-07-19T09:03:15;100427.78;;;38.84;21.18
27587;BME280;15019;49.002;8.420;2022-07-19T09:05:41;100433.22;;;38.22;21.51
27587;BME280;15019;49.002;8.420;2022-07-19T09:08:11;100437.00;;;38.73;21.00
27587;BME280;15019;49.002;8.420;2022-07-19T09:10:39;100434.19;;;38.90;20.37
27587;BME280;15019;49.002;8.420;2022-07-19T09:13:13;100436.47;;;39.60;19.19
27587;BME280;15019;49.002;8.420;2022-07-19T09:15:42;100446.34;;;39.36;20.15
27587;BME280;15019;49.002;8.420;2022-07-19T09:18:22;100436.00;;;38.89;19.11
27587;BME280;15019;49.002;8.420;2022-07-19T09:20:51;100418.78;;;38.70;19.60
27587;BME280;15019;49.002;8.420;2022-07-19T09:23:17;100427.59;;;39.52;19.07
27587;BME280;15019;49.002;8.420;2022-07-19T09:25:45;100432.19;;;39.59;17.86
27587;BME280;15019;49.002;8.420;2022-07-19T09:28:12;100425.09;;;39.22;18.40
27587;BME280;15019;49.002;8.420;2022-07-19T09:30:50;100425.28;;;39.64;18.70
27587;BME280;15019;49.002;8.420;2022-07-19T09:35:47;100418.16;;;40.15;20.82
27587;BME280;15019;49.002;8.420;2022-07-19T09:38:34;100423.19;;;40.10;19.66
27587;BME280;15019;49.002;8.420;2022-07-19T09:41:17;100426.91;;;40.31;21.87
27587;BME280;15019;49.002;8.420;2022-07-19T09:44:00;100428.50;;;39.30;19.96
27587;BME280;15019;49.002;8.420;2022-07-19T09:46:37;100416.28;;;38.54;21.25
27587;BME280;15019;49.002;8.420;2022-07-19T09:49:03;100413.66;;;39.80;20.98
27587;BME280;15019;49.002;8.420;2022-07-19T09:51:30;100415.59;;;40.07;20.40
27587;BME280;15019;49.002;8.420;2022-07-19T09:53:57;100416.97;;;39.52;20.02
27587;BME280;15019;49.002;8.420;2022-07-19T09:56:23;100409.59;;;39.48;20.06
27587;BME280;15019;49.002;8.420;2022-07-19T09:58:49;100406.97;;;38.13;20.93
27587;BME280;15019;49.002;8.420;2022-07-19T10:01:15;100405.31;;;38.57;19.36
27587;BME280;15019;49.002;8.420;2022-07-19T10:03:41;100402.59;;;38.65;20.19
27587;BME280;15019;49.002;8.420;2022-07-19T10:06:09;100395.19;;;38.98;20.57
27587;BME280;15019;49.002;8.420;2022-07-19T10:08:35;100399.94;;;39.03;20.70
27587;BME280;15019;49.002;8.420;2022-07-19T10:11:01;100393.06;;;39.52;19.66
27587;BME280;15019;49.002;8.420;2022-07-19T10:13:27;100397.84;;;39.28;20.16
27587;BME280;15019;49.002;8.420;2022-07-19T10:15:54;100396.66;;;39.30;19.34
27587;BME280;15019;49.002;8.420;2022-07-19T10:18:28;100399.56;;;38.68;20.08
27587;BME280;15019;49.002;8.420;2022-07-19T10:20:58;100384.47;;;39.36;20.02
27587;BME280;15019;49.002;8.420;2022-07-19T10:23:28;100382.00;;;39.34;20.05
27587;BME280;15019;49.002;8.420;2022-07-19T10:25:53;100371.78;;;39.82;19.38
27587;BME280;15019;49.002;8.420;2022-07-19T10:28:26;100378.34;;;40.01;18.68
27587;BME280;15019;49.002;8.420;2022-07-19T10:30:52;100390.16;;;39.03;18.71
27587;BME280;15019;49.002;8.420;2022-07-19T10:33:35;100379.28;;;39.13;18.75
27587;BME280;15019;49.002;8.420;2022-07-19T10:42:15;100361.38;;;38.63;18.52
27587;BME280;15019;49.002;8.420;2022-07-19T10:50:10;100357.69;;;37.95;18.91
27587;BME280;15019;49.002;8.420;2022-07-19T10:52:38;100343.25;;;38.29;18.55
27587;BME280;15019;49.002;8.420;2022-07-19T10:57:42;100351.78;;;38.39;19.26
27587;BME280;15019;49.002;8.420;2022-07-19T11:00:25;100339.34;;;38.92;18.48
27587;BME280;15019;49.002;8.420;2022-07-19T11:02:53;100333.22;;;38.91;18.89
27587;BME280;15019;49.002;8.420;2022-07-19T11:05:45;100334.81;;;38.86;18.92
27587;BME280;15019;49.002;8.420;2022-07-19T11:08:11;100329.75;;;38.61;19.29
27587;BME280;15019;49.002;8.420;2022-07-19T11:10:36;100334.81;;;39.00;18.72
27587;BME280;15019;49.002;8.420;2022-07-19T11:13:01;100315.38;;;38.70;19.01
27587;BME280;15019;49.002;8.420;2022-07-19T11:15:27;100317.69;;;38.36;20.10
27587;BME280;15019;49.002;8.420;2022-07-19T11:20:27;100328.28;;;38.36;18.62
27587;BME280;15019;49.002;8.420;2022-07-19T11:22:54;100304.47;;;37.90;20.10
27587;BME280;15019;49.002;8.420;2022-07-19T11:27:53;100308.38;;;37.94;19.39
27587;BME280;15019;49.002;8.420;2022-07-19T11:30:21;100304.09;;;37.40;20.14
27587;BME280;15019;49.002;8.420;2022-07-19T11:32:51;100289.59;;;37.27;20.03
27587;BME280;15019;49.002;8.420;2022-07-19T11:35:17;100293.09;;;37.20;20.06
27587;BME280;15019;49.002;8.420;2022-07-19T11:37:42;100292.22;;;37.58;19.84
27587;BME280;15019;49.002;8.420;2022-07-19T11:40:10;100291.47;;;37.42;20.42
27587;BME280;15019;49.002;8.420;2022-07-19T11:42:38;100279.34;;;37.24;20.81
27587;BME280;15019;49.002;8.420;2022-07-19T11:45:23;100263.28;;;36.87;20.34
27587;BME280;15019;49.002;8.420;2022-07-19T11:47:55;100272.06;;;37.26;19.71
27587;BME280;15019;49.002;8.420;2022-07-19T11:50:23;100281.94;;;37.32;20.13
27587;BME280;15019;49.002;8.420;2022-07-19T11:52:57;100277.75;;;37.77;19.92
27587;BME280;15019;49.002;8.420;2022-07-19T11:55:26;100276.25;;;37.74;19.63
27587;BME280;15019;49.002;8.420;2022-07-19T11:57:53;100265.28;;;37.55;19.81
27587;BME280;15019;49.002;8.420;2022-07-19T12:00:20;100278.75;;;37.06;19.22
27587;BME280;15019;49.002;8.420;2022-07-19T12:03:03;100274.50;;;36.97;19.14
27587;BME280;15019;49.002;8.420;2022-07-19T12:05:31;100267.50;;;37.04;19.66
27587;BME280;15019;49.002;8.420;2022-07-19T12:07:59;100264.91;;;36.88;19.38
27587;BME280;15019;49.002;8.420;2022-07-19T12:10:51;100251.81;;;37.42;19.18
27587;BME280;15019;49.002;8.420;2022-07-19T12:13:31;100249.22;;;37.33;19.14
27587;BME280;15019;49.002;8.420;2022-07-19T12:15:59;100251.38;;;37.30;19.69
27587;BME280;15019;49.002;8.420;2022-07-19T12:18:51;100239.41;;;37.03;20.03
27587;BME280;15019;49.002;8.420;2022-07-19T12:21:22;100236.19;;;36.85;20.04
27587;BME280;15019;49.002;8.420;2022-07-19T12:24:19;100228.66;;;36.65;19.67
27587;BME280;15019;49.002;8.420;2022-07-19T12:32:14;100223.06;;;36.52;20.45
27587;BME280;15019;49.002;8.420;2022-07-19T12:34:49;100227.38;;;36.37;19.65
27587;BME280;15019;49.002;8.420;2022-07-19T12:37:23;100222.72;;;36.47;20.08
27587;BME280;15019;49.002;8.420;2022-07-19T12:40:20;100209.03;;;36.36;20.44
27587;BME280;15019;49.002;8.420;2022-07-19T12:42:54;100216.94;;;36.52;19.89
27587;BME280;15019;49.002;8.420;2022-07-19T12:45:22;100219.75;;;36.50;19.61
27587;BME280;15019;49.002;8.420;2022-07-19T12:47:48;100213.81;;;36.48;19.67
27587;BME280;15019;49.002;8.420;2022-07-19T12:50:22;100214.44;;;36.58;19.83
27587;BME280;15019;49.002;8.420;2022-07-19T12:52:49;100215.63;;;36.48;19.43
27587;BME280;15019;49.002;8.420;2022-07-19T12:55:15;100219.47;;;36.29;20.28
27587;BME280;15019;49.002;8.420;2022-07-19T12:57:40;100216.81;;;36.37;18.90
27587;BME280;15019;49.002;8.420;2022-07-19T13:00:06;100213.22;;;36.22;19.10
27587;BME280;15019;49.002;8.420;2022-07-19T13:02:32;100208.53;;;36.48;19.25
27587;BME280;15019;49.002;8.420;2022-07-19T13:04:57;100197.56;;;36.67;19.43
27587;BME280;15019;49.002;8.420;2022-07-19T13:07:23;100206.84;;;36.63;19.81
27587;BME280;15019;49.002;8.420;2022-07-19T13:09:48;100209.00;;;36.60;20.04
27587;BME280;15019;49.002;8.420;2022-07-19T13:12:14;100200.22;;;36.76;19.43
27587;BME280;15019;49.002;8.420;2022-07-19T13:14:39;100215.94;;;36.69;19.06
27587;BME280;15019;49.002;8.420;2022-07-19T13:17:06;100199.94;;;36.46;18.92
27587;BME280;15019;49.002;8.420;2022-07-19T13:19:32;100198.91;;;36.55;19.45